DAUB

Biskra Airport

Biskra, Algeria
METAR DAUB 161800Z 09005KT 9999 FEW040 BKN200 14/06 Q1020
Observed Flight Rules
Jan-16 @ 18:00 UTC (28 minutes ago) Visual Flight Rules
Wind Visibility Clouds
90° at 5 knots 10,000+ meters
  • Few at 4,000' AGL
  • Broken at 20,000' AGL
Temperatures Readings
Current 14°C / 57°F
Dewpoint 6°C / 43°F
Humidity 59%
Altimeter 30.12" Hg
Pressure 1019.92 hPa
Elevation 87
METAR DAUB 161800Z 09005KT 9999 FEW040 BKN200 14/06 Q1020
Observed Flight Rules
Jan-16 @ 18:00 UTC
(28 minutes ago)
VFR
Wind Visibility
90° at 5 knots 10,000+ meters
Clouds
  • Few at 4,000' AGL
  • Broken at 20,000' AGL
Temperature Dewpoint
14°C / 57°F 6°C / 43°F
Humidity Altimeter Pressure
59% 30.12" Hg 1019.92 hPa